Time;durP1;ratioP1;P1;durP2;ratioP2;P2;SDS_P1;SDS_P2;PMS_P1;PMS_P2;Temp;Humidity;BMP_temperature;BMP_pressure;BME280_temperature;BME280_humidity;BME280_pressure;Samples;Min_cycle;Max_cycle;Signal;HPM_P1;HPM_P2
2021/09/26 00:02:13;;;;;;;15.02;8.23;;;410.00;2355.20;;;;;;4888062;29;20029;-78
2021/09/26 00:04:39;;;;;;;19.80;9.35;;;410.00;2355.20;;;;;;4888307;29;20044;-77
2021/09/26 00:07:05;;;;;;;25.30;9.68;;;410.00;2355.20;;;;;;4890053;29;20056;-76
2021/09/26 00:09:31;;;;;;;14.40;9.13;;;410.00;2355.20;;;;;;4872691;29;20036;-76
2021/09/26 00:11:57;;;;;;;17.45;8.45;;;409.90;2355.20;;;;;;4889661;29;20103;-77
2021/09/26 00:14:23;;;;;;;16.95;8.25;;;409.80;2355.20;;;;;;4887633;29;20147;-75
2021/09/26 00:16:54;;;;;;;14.35;8.63;;;409.70;2355.20;;;;;;4887000;29;20068;-77
2021/09/26 00:19:23;;;;;;;19.55;7.97;;;409.70;2355.20;;;;;;4864418;29;20033;-78
2021/09/26 00:21:49;;;;;;;16.13;7.43;;;409.70;2355.20;;;;;;4863579;29;20029;-78
2021/09/26 00:24:17;;;;;;;15.35;7.70;;;409.70;2355.20;;;;;;4881428;29;20027;-78
2021/09/26 00:26:43;;;;;;;19.10;8.48;;;409.60;2355.20;;;;;;4888616;29;20040;-78
2021/09/26 00:29:09;;;;;;;15.27;8.02;;;384.90;2329.60;;;;;;4888566;29;20084;-78
2021/09/26 00:31:35;;;;;;;14.38;7.78;;;384.80;2329.60;;;;;;4873543;29;20112;-78
2021/09/26 00:34:00;;;;;;;12.32;8.00;;;384.60;2329.60;;;;;;4889117;29;20033;-78
2021/09/26 00:36:26;;;;;;;13.57;8.00;;;384.60;2329.60;;;;;;4872237;29;20034;-78
2021/09/26 00:38:52;;;;;;;18.02;7.60;;;384.70;2329.60;;;;;;4882449;29;20079;-78
2021/09/26 00:41:18;;;;;;;14.68;7.80;;;384.80;2329.60;;;;;;4890163;29;20397;-76
2021/09/26 00:43:43;;;;;;;10.38;6.40;;;384.60;2329.60;;;;;;4856678;29;20450;-76
2021/09/26 00:46:09;;;;;;;11.70;7.35;;;384.60;2329.60;;;;;;4888486;29;20441;-78
2021/09/26 00:48:36;;;;;;;15.63;8.60;;;384.50;2329.60;;;;;;4889972;29;20029;-78
2021/09/26 00:51:02;;;;;;;15.23;7.53;;;384.60;2329.60;;;;;;4871768;29;20029;-78
2021/09/26 00:53:28;;;;;;;12.60;7.82;;;384.60;2329.60;;;;;;4871230;29;20029;-79
2021/09/26 00:55:57;;;;;;;15.55;7.55;;;384.60;2329.60;;;;;;4870941;29;20564;-78
2021/09/26 00:58:23;;;;;;;10.38;6.80;;;384.60;2329.60;;;;;;4888935;29;20358;-79
2021/09/26 01:00:49;;;;;;;13.80;8.57;;;384.60;2329.60;;;;;;4872428;29;20040;-78
2021/09/26 01:03:15;;;;;;;14.68;7.35;;;384.60;2329.60;;;;;;4887484;29;20025;-78
2021/09/26 01:05:41;;;;;;;18.23;7.95;;;384.60;2329.60;;;;;;4889297;29;20029;-78
2021/09/26 01:08:21;;;;;;;12.98;7.78;;;384.40;2329.60;;;;;;4870276;29;20029;-76
2021/09/26 01:11:12;;;;;;;14.73;7.45;;;384.40;2329.60;;;;;;4880532;29;20021;-79
2021/09/26 01:14:03;;;;;;;11.27;7.65;;;384.40;2329.60;;;;;;4811402;29;20078;-78
2021/09/26 01:16:34;;;;;;;11.60;7.15;;;384.40;2329.60;;;;;;4822057;29;20114;-76
2021/09/26 01:19:02;;;;;;;11.90;7.50;;;384.40;2329.60;;;;;;4821433;29;20143;-79
2021/09/26 01:22:00;;;;;;;10.55;7.57;;;384.50;2329.60;;;;;;4821841;29;20123;-77
2021/09/26 01:24:41;;;;;;;11.73;7.95;;;384.50;2329.60;;;;;;4820379;29;20034;-78
2021/09/26 01:27:31;;;;;;;12.43;7.35;;;384.40;2329.60;;;;;;4821906;29;20146;-78
2021/09/26 01:30:18;;;;;;;9.57;6.93;;;384.40;2329.60;;;;;;4821388;29;20080;-78
2021/09/26 01:33:12;;;;;;;13.15;7.25;;;384.40;2329.60;;;;;;4821728;29;20050;-76
2021/09/26 01:35:55;;;;;;;11.45;7.50;;;384.50;2329.60;;;;;;4810012;29;20050;-77
2021/09/26 01:38:44;;;;;;;12.57;8.00;;;384.60;2329.60;;;;;;4821771;29;20497;-75
2021/09/26 01:41:20;;;;;;;13.32;7.05;;;384.40;2329.60;;;;;;4820921;29;20372;-78
2021/09/26 01:43:48;;;;;;;12.32;8.18;;;384.40;2329.60;;;;;;4821278;29;20050;-77
2021/09/26 01:46:22;;;;;;;13.88;6.78;;;384.30;2329.60;;;;;;4806431;29;20030;-78
2021/09/26 01:49:07;;;;;;;11.65;8.05;;;384.10;2329.60;;;;;;4805894;29;20026;-75
2021/09/26 01:51:38;;;;;;;13.18;7.82;;;384.00;2329.60;;;;;;4879106;29;20046;-78
2021/09/26 01:54:08;;;;;;;14.52;7.97;;;384.10;2329.60;;;;;;4885767;29;20028;-78
2021/09/26 01:56:35;;;;;;;9.70;6.85;;;384.10;2329.60;;;;;;4887140;29;20029;-79
2021/09/26 01:59:02;;;;;;;11.25;7.70;;;384.10;2329.60;;;;;;4884680;29;20056;-78
2021/09/26 02:01:28;;;;;;;12.57;7.32;;;384.00;2329.60;;;;;;4872088;29;20041;-77
2021/09/26 02:03:55;;;;;;;14.90;7.78;;;384.00;2329.60;;;;;;4889459;29;20031;-78
2021/09/26 02:06:22;;;;;;;13.90;7.03;;;359.30;2329.60;;;;;;4886107;29;20024;-78
2021/09/26 02:08:48;;;;;;;13.77;7.60;;;359.20;2329.60;;;;;;4879850;29;20056;-76
2021/09/26 02:11:14;;;;;;;16.30;7.70;;;359.20;2329.60;;;;;;4870313;29;20041;-76
2021/09/26 02:13:42;;;;;;;10.68;7.10;;;359.20;2329.60;;;;;;4888392;29;20148;-77
2021/09/26 02:16:09;;;;;;;15.82;7.30;;;359.10;2329.60;;;;;;4883598;29;20057;-78
2021/09/26 02:18:37;;;;;;;9.40;7.57;;;359.00;2329.60;;;;;;4886012;29;20013;-79
2021/09/26 02:21:05;;;;;;;14.23;7.85;;;359.00;2329.60;;;;;;4872002;29;20115;-78
2021/09/26 02:23:32;;;;;;;13.63;6.70;;;359.10;2329.60;;;;;;4869287;29;20063;-76
2021/09/26 02:25:58;;;;;;;13.75;7.93;;;359.10;2329.60;;;;;;4888479;29;20292;-78
2021/09/26 02:28:24;;;;;;;11.68;7.55;;;359.10;2329.60;;;;;;4885849;29;20100;-76
2021/09/26 02:30:51;;;;;;;12.38;7.22;;;359.10;2329.60;;;;;;4871191;29;20359;-79
2021/09/26 02:33:17;;;;;;;18.48;8.90;;;384.10;2329.60;;;;;;4886819;29;20032;-76
2021/09/26 02:35:43;;;;;;;15.35;8.00;;;359.20;2329.60;;;;;;4871598;29;20036;-80
2021/09/26 02:38:09;;;;;;;13.07;8.15;;;359.10;2329.60;;;;;;4869674;29;20036;-79
2021/09/26 02:40:35;;;;;;;17.20;9.00;;;359.00;2329.60;;;;;;4885964;29;20032;-77
2021/09/26 02:43:26;;;;;;;16.90;9.20;;;359.00;2329.60;;;;;;4871558;29;20136;-80
2021/09/26 02:46:13;;;;;;;13.57;8.80;;;359.00;2329.60;;;;;;4889505;29;20029;-79
2021/09/26 02:48:40;;;;;;;18.67;9.68;;;359.00;2329.60;;;;;;4889452;29;20096;-78
2021/09/26 02:51:06;;;;;;;15.15;8.25;;;359.00;2329.60;;;;;;4893856;29;20030;-80
2021/09/26 02:53:33;;;;;;;16.00;8.50;;;358.90;2329.60;;;;;;4874237;29;20095;-80
2021/09/26 02:56:01;;;;;;;21.05;9.52;;;358.90;2329.60;;;;;;4892353;29;20036;-79
2021/09/26 02:58:29;;;;;;;17.15;8.95;;;358.90;2329.60;;;;;;4874338;29;20032;-76
2021/09/26 03:00:55;;;;;;;14.52;9.70;;;358.80;2329.60;;;;;;4887834;29;20107;-80
2021/09/26 03:03:26;;;;;;;18.15;9.27;;;358.80;2329.60;;;;;;4890260;29;20100;-79
2021/09/26 03:05:53;;;;;;;17.17;10.07;;;358.70;2329.60;;;;;;4890585;29;20362;-76
2021/09/26 03:08:20;;;;;;;15.63;8.32;;;358.60;2329.60;;;;;;4872974;29;20021;-77
2021/09/26 03:10:48;;;;;;;16.45;8.98;;;358.60;2329.60;;;;;;4894007;29;20017;-80
2021/09/26 03:13:15;;;;;;;19.80;9.80;;;358.60;2329.60;;;;;;4891459;29;20524;-79
2021/09/26 03:15:40;;;;;;;17.13;9.18;;;358.60;2329.60;;;;;;4873077;29;20047;-78
2021/09/26 03:18:06;;;;;;;15.52;8.07;;;358.60;2329.60;;;;;;4874825;29;20024;-76
2021/09/26 03:20:32;;;;;;;13.00;9.10;;;358.80;2329.60;;;;;;4874623;29;20028;-80
2021/09/26 03:22:58;;;;;;;18.13;9.05;;;358.70;2329.60;;;;;;4889845;29;20077;-76
2021/09/26 03:25:24;;;;;;;15.85;9.05;;;358.80;2329.60;;;;;;4889163;29;20421;-80
2021/09/26 03:27:50;;;;;;;19.48;8.48;;;358.80;2329.60;;;;;;4890713;29;20060;-80
2021/09/26 03:30:17;;;;;;;20.58;9.02;;;358.90;2329.60;;;;;;4875505;29;20115;-80
2021/09/26 03:32:43;;;;;;;15.55;9.07;;;358.90;2329.60;;;;;;4891572;29;20104;-77
2021/09/26 03:35:10;;;;;;;14.63;8.35;;;358.80;2329.60;;;;;;4872574;29;20064;-78
2021/09/26 03:37:36;;;;;;;16.95;8.50;;;358.80;2329.60;;;;;;4872329;29;20029;-80
2021/09/26 03:40:05;;;;;;;16.48;9.05;;;358.80;2329.60;;;;;;4872299;29;20044;-80
2021/09/26 03:42:31;;;;;;;14.68;9.90;;;358.80;2329.60;;;;;;4890351;29;20511;-80
2021/09/26 03:44:57;;;;;;;15.73;8.75;;;358.70;2329.60;;;;;;4884482;29;20033;-80
2021/09/26 03:47:23;;;;;;;18.20;8.55;;;358.60;2329.60;;;;;;4880817;29;20109;-80
2021/09/26 03:49:48;;;;;;;15.10;8.50;;;358.50;2329.60;;;;;;4867241;29;20401;-79
2021/09/26 03:52:14;;;;;;;17.70;9.20;;;358.50;2329.60;;;;;;4872719;29;20036;-80
2021/09/26 03:54:40;;;;;;;18.48;9.95;;;358.40;2329.60;;;;;;4891621;29;20084;-81
2021/09/26 03:57:07;;;;;;;16.77;9.27;;;358.40;2329.60;;;;;;4872084;29;20075;-76
2021/09/26 03:59:33;;;;;;;20.40;10.00;;;333.40;2329.60;;;;;;4890328;29;20021;-76
2021/09/26 04:01:59;;;;;;;17.92;10.35;;;333.60;2329.60;;;;;;4889537;29;20036;-77
2021/09/26 04:04:25;;;;;;;21.00;9.93;;;333.60;2329.60;;;;;;4871649;29;20045;-80
2021/09/26 04:06:51;;;;;;;21.98;10.68;;;333.70;2329.60;;;;;;4873483;29;20025;-80
2021/09/26 04:09:16;;;;;;;18.02;10.73;;;358.40;2329.60;;;;;;4889482;29;20021;-77
2021/09/26 04:11:42;;;;;;;16.63;11.27;;;358.50;2329.60;;;;;;4891723;29;20025;-77
2021/09/26 04:14:08;;;;;;;17.85;10.05;;;358.60;2329.60;;;;;;4887259;29;20096;-80
2021/09/26 04:16:34;;;;;;;15.45;9.65;;;358.50;2329.60;;;;;;4871642;29;20072;-78
2021/09/26 04:19:00;;;;;;;22.25;10.63;;;358.60;2329.60;;;;;;4874384;29;20509;-80
2021/09/26 04:21:26;;;;;;;18.70;11.48;;;358.60;2329.60;;;;;;4863680;29;20507;-77
2021/09/26 04:23:52;;;;;;;19.10;11.80;;;358.50;2329.60;;;;;;4880779;29;20029;-81
2021/09/26 04:26:19;;;;;;;21.25;10.68;;;358.60;2329.60;;;;;;4885475;29;20039;-79
2021/09/26 04:28:45;;;;;;;23.35;11.68;;;358.60;2329.60;;;;;;4866559;29;20029;-80
2021/09/26 04:31:10;;;;;;;23.30;11.55;;;358.70;2329.60;;;;;;4869140;29;20028;-77
2021/09/26 04:33:36;;;;;;;19.40;9.32;;;358.60;2329.60;;;;;;4871599;29;20025;-79
2021/09/26 04:36:03;;;;;;;17.33;10.50;;;358.60;2329.60;;;;;;4873718;29;20111;-80
2021/09/26 04:38:28;;;;;;;20.85;10.65;;;358.60;2329.60;;;;;;4889310;29;20028;-79
2021/09/26 04:40:54;;;;;;;18.00;11.70;;;358.40;2329.60;;;;;;4874383;29;20033;-80
2021/09/26 04:43:20;;;;;;;14.25;10.35;;;358.40;2329.60;;;;;;4869304;29;20025;-80
2021/09/26 04:45:46;;;;;;;15.13;9.60;;;358.40;2329.60;;;;;;4871520;29;20505;-77
2021/09/26 04:48:11;;;;;;;20.00;10.63;;;358.40;2329.60;;;;;;4873055;29;20025;-80
2021/09/26 04:50:37;;;;;;;20.48;10.30;;;333.70;2329.60;;;;;;4865540;29;20039;-77
2021/09/26 04:53:04;;;;;;;17.63;9.75;;;333.70;2329.60;;;;;;4888284;29;20052;-79
2021/09/26 04:55:29;;;;;;;21.90;11.02;;;333.60;2329.60;;;;;;4890749;29;20071;-80
2021/09/26 04:57:56;;;;;;;15.00;9.75;;;333.60;2329.60;;;;;;4888733;29;20056;-76
2021/09/26 05:00:22;;;;;;;16.00;9.48;;;333.60;2329.60;;;;;;4873392;29;20032;-79
2021/09/26 05:02:48;;;;;;;15.25;9.40;;;333.60;2329.60;;;;;;4887597;29;20482;-80
2021/09/26 05:05:15;;;;;;;15.20;9.60;;;333.70;2329.60;;;;;;4873465;29;20040;-80
2021/09/26 05:07:40;;;;;;;19.35;9.23;;;333.70;2329.60;;;;;;4873235;29;20094;-80
2021/09/26 05:10:07;;;;;;;15.43;9.07;;;358.40;2329.60;;;;;;4887479;29;20025;-77
2021/09/26 05:12:33;;;;;;;19.50;8.80;;;358.50;2329.60;;;;;;4889324;29;20497;-81
2021/09/26 05:15:03;;;;;;;14.57;9.50;;;358.50;2329.60;;;;;;4886870;29;20056;-76
2021/09/26 05:17:30;;;;;;;11.93;8.55;;;358.60;2329.60;;;;;;4871188;29;20032;-78
2021/09/26 05:19:56;;;;;;;19.67;8.75;;;358.60;2329.60;;;;;;4888442;29;20043;-79
2021/09/26 05:22:22;;;;;;;13.07;8.43;;;358.70;2329.60;;;;;;4889777;29;20466;-79
2021/09/26 05:24:48;;;;;;;17.20;9.13;;;358.80;2329.60;;;;;;4862653;29;20029;-80
2021/09/26 05:27:14;;;;;;;14.63;8.50;;;358.80;2329.60;;;;;;4879665;29;20363;-80
2021/09/26 05:29:40;;;;;;;16.02;9.15;;;358.90;2329.60;;;;;;4872739;29;20075;-80
2021/09/26 05:32:07;;;;;;;16.02;8.32;;;358.80;2329.60;;;;;;4870654;29;20401;-78
2021/09/26 05:34:33;;;;;;;13.02;8.43;;;358.80;2329.60;;;;;;4870675;29;20040;-78
2021/09/26 05:37:00;;;;;;;13.70;9.20;;;358.80;2329.60;;;;;;4890605;29;20059;-80
2021/09/26 05:39:26;;;;;;;14.00;8.35;;;358.90;2329.60;;;;;;4864352;29;20016;-77
2021/09/26 05:41:53;;;;;;;16.90;9.25;;;359.00;2329.60;;;;;;4887088;29;20107;-81
2021/09/26 05:44:19;;;;;;;16.08;9.07;;;359.20;2329.60;;;;;;4873491;29;20103;-78
2021/09/26 05:46:44;;;;;;;15.27;9.45;;;359.30;2329.60;;;;;;4887208;29;20029;-81
2021/09/26 05:49:10;;;;;;;16.58;9.77;;;359.30;2329.60;;;;;;4888874;29;20020;-76
2021/09/26 05:51:36;;;;;;;15.55;8.63;;;384.10;2329.60;;;;;;4887800;29;20108;-76
2021/09/26 05:54:02;;;;;;;13.18;8.80;;;384.20;2329.60;;;;;;4870389;29;20119;-76
2021/09/26 05:56:28;;;;;;;14.32;9.63;;;384.40;2329.60;;;;;;4869482;29;20045;-75
2021/09/26 05:58:54;;;;;;;16.42;9.52;;;384.60;2329.60;;;;;;4880831;29;20032;-76
2021/09/26 06:01:19;;;;;;;13.90;9.50;;;384.70;2329.60;;;;;;4869341;29;20028;-79
2021/09/26 06:03:45;;;;;;;16.63;10.07;;;384.90;2329.60;;;;;;4881068;29;20474;-80
2021/09/26 06:06:11;;;;;;;18.33;9.40;;;384.90;2329.60;;;;;;4885083;29;20415;-81
2021/09/26 06:08:37;;;;;;;13.02;8.23;;;409.70;2355.20;;;;;;4872779;29;20465;-75
2021/09/26 06:11:03;;;;;;;16.52;8.65;;;409.70;2355.20;;;;;;4887120;29;20033;-75
2021/09/26 06:13:29;;;;;;;17.40;9.13;;;409.90;2355.20;;;;;;4888521;29;20483;-77
2021/09/26 06:15:55;;;;;;;15.55;8.20;;;410.10;2355.20;;;;;;4888669;29;20028;-79
2021/09/26 06:18:20;;;;;;;17.77;8.82;;;410.20;2355.20;;;;;;4887964;29;20061;-79
2021/09/26 06:20:47;;;;;;;13.40;7.70;;;410.30;2355.20;;;;;;4886602;29;20025;-75
2021/09/26 06:23:13;;;;;;;21.67;9.50;;;410.30;2355.20;;;;;;4889096;29;20025;-75
2021/09/26 06:25:39;;;;;;;16.23;8.52;;;410.50;2355.20;;;;;;4887173;29;20504;-76
2021/09/26 06:28:05;;;;;;;18.92;8.57;;;435.20;2355.20;;;;;;4888643;29;20036;-76
2021/09/26 06:30:32;;;;;;;16.85;10.10;;;435.30;2355.20;;;;;;4885915;29;20036;-83
2021/09/26 06:32:57;;;;;;;21.27;11.32;;;435.60;2355.20;;;;;;4886496;29;20044;-79
2021/09/26 06:35:23;;;;;;;27.58;16.33;;;435.70;2355.20;;;;;;4888161;29;20064;-80
2021/09/26 06:37:50;;;;;;;39.15;23.85;;;435.90;2355.20;;;;;;4886528;29;20541;-76
2021/09/26 06:40:15;;;;;;;30.13;17.42;;;436.00;2355.20;;;;;;4871030;29;20499;-75
2021/09/26 06:42:41;;;;;;;38.15;21.02;;;436.10;2355.20;;;;;;4885850;29;20025;-78
2021/09/26 06:45:08;;;;;;;40.45;21.77;;;460.90;2380.80;;;;;;4871382;29;20053;-76
2021/09/26 06:47:35;;;;;;;36.45;24.75;;;461.10;2380.80;;;;;;4868396;29;20043;-75
2021/09/26 06:50:01;;;;;;;39.80;26.83;;;461.20;2380.80;;;;;;4882720;29;20092;-77
2021/09/26 06:52:26;;;;;;;44.58;29.08;;;461.30;2380.80;;;;;;4888052;29;20111;-76
2021/09/26 06:54:52;;;;;;;47.97;32.38;;;461.50;2380.80;;;;;;4886285;29;20470;-76
2021/09/26 06:57:18;;;;;;;55.50;34.50;;;461.70;2380.80;;;;;;4885849;29;20048;-75
2021/09/26 06:59:44;;;;;;;63.65;43.83;;;486.40;2380.80;;;;;;4888042;29;20017;-80
2021/09/26 07:02:10;;;;;;;73.55;46.13;;;486.60;2380.80;;;;;;4886065;29;20032;-80
2021/09/26 07:04:35;;;;;;;76.43;50.45;;;486.60;2380.80;;;;;;4886346;29;20145;-75
2021/09/26 07:07:02;;;;;;;73.30;49.85;;;486.80;2380.80;;;;;;4886161;29;20115;-75
2021/09/26 07:09:28;;;;;;;86.20;54.25;;;487.00;2380.80;;;;;;4886284;29;20025;-77
2021/09/26 07:11:53;;;;;;;80.22;51.83;;;486.90;2380.80;;;;;;4888130;29;20051;-75
2021/09/26 07:14:19;;;;;;;72.10;48.83;;;487.10;2380.80;;;;;;4886948;29;20041;-78
2021/09/26 07:16:45;;;;;;;74.75;51.65;;;487.20;2380.80;;;;;;4885928;29;20058;-77
2021/09/26 07:19:12;;;;;;;64.63;43.20;;;512.00;2380.80;;;;;;4885881;29;20021;-77
2021/09/26 07:21:39;;;;;;;62.15;42.28;;;512.20;2380.80;;;;;;4869590;29;20029;-80
2021/09/26 07:24:04;;;;;;;57.05;40.63;;;512.20;2380.80;;;;;;4888754;29;20081;-81
2021/09/26 07:26:31;;;;;;;61.47;44.15;;;512.40;2380.80;;;;;;4882308;29;20025;-76
2021/09/26 07:28:56;;;;;;;62.58;40.38;;;512.50;2380.80;;;;;;4887208;29;20025;-76
2021/09/26 07:31:22;;;;;;;60.90;42.38;;;512.70;2380.80;;;;;;4885456;29;20029;-75
2021/09/26 07:33:48;;;;;;;53.22;36.10;;;512.80;2380.80;;;;;;4885989;29;20029;-79
2021/09/26 07:36:14;;;;;;;51.38;35.17;;;512.90;2380.80;;;;;;4891093;29;20497;-74
2021/09/26 07:38:40;;;;;;;54.05;35.75;;;537.70;2406.40;;;;;;4873566;29;20021;-78
2021/09/26 07:41:06;;;;;;;109.55;66.18;;;538.00;2406.40;;;;;;4889395;29;20060;-77
2021/09/26 07:43:32;;;;;;;55.92;35.50;;;538.10;2406.40;;;;;;4891027;29;20035;-79
2021/09/26 07:45:57;;;;;;;50.05;34.60;;;538.20;2406.40;;;;;;4891344;29;20036;-74
2021/09/26 07:48:24;;;;;;;41.55;29.67;;;538.30;2406.40;;;;;;4890861;29;20534;-80
2021/09/26 07:50:51;;;;;;;56.65;37.72;;;538.50;2406.40;;;;;;4889000;29;20029;-75
2021/09/26 07:53:17;;;;;;;53.78;38.80;;;563.20;2432.00;;;;;;4892659;29;20018;-82
2021/09/26 07:55:43;;;;;;;64.25;44.90;;;563.40;2406.40;;;;;;4875392;29;20053;-79
2021/09/26 07:58:09;;;;;;;57.40;41.38;;;563.50;2380.80;;;;;;4891676;29;20024;-84
2021/09/26 08:00:34;;;;;;;54.53;37.63;;;563.60;2380.80;;;;;;4889606;29;20025;-82
2021/09/26 08:03:00;;;;;;;53.88;40.58;;;563.70;2278.40;;;;;;4871280;29;20044;-82
2021/09/26 08:05:26;;;;;;;71.15;52.95;;;563.90;2329.60;;;;;;4891341;29;20033;-81
2021/09/26 08:07:52;;;;;;;69.82;50.72;;;563.90;2304.00;;;;;;4886675;29;20044;-78
2021/09/26 08:10:18;;;;;;;63.83;47.55;;;564.00;2304.00;;;;;;4886204;29;20587;-78
2021/09/26 08:12:44;;;;;;;52.65;37.63;;;588.80;2278.40;;;;;;4889306;29;20056;-78
2021/09/26 08:15:11;;;;;;;54.42;41.00;;;589.00;2201.60;;;;;;4886129;29;20045;-85
2021/09/26 08:17:37;;;;;;;58.42;44.08;;;589.00;2227.20;;;;;;4862378;29;20077;-80
2021/09/26 08:20:04;;;;;;;56.55;40.88;;;589.10;2176.00;;;;;;4889364;29;20032;-84
2021/09/26 08:22:30;;;;;;;59.72;41.65;;;589.30;2176.00;;;;;;4863699;29;20029;-80
2021/09/26 08:25:00;;;;;;;47.65;37.67;;;589.40;2201.60;;;;;;4885658;29;20025;-84
2021/09/26 08:27:28;;;;;;;52.03;39.20;;;589.50;2124.80;;;;;;4890123;29;20021;-79
2021/09/26 08:29:54;;;;;;;55.97;38.03;;;589.70;2176.00;;;;;;4882693;29;20805;-76
2021/09/26 08:32:19;;;;;;;55.40;36.67;;;614.40;2124.80;;;;;;4885055;29;20021;-77
2021/09/26 08:34:45;;;;;;;33.17;24.98;;;589.70;2150.40;;;;;;4890042;29;20029;-77
2021/09/26 08:37:11;;;;;;;41.13;28.60;;;614.40;2099.20;;;;;;4888556;29;20036;-76
2021/09/26 08:39:37;;;;;;;48.03;30.73;;;614.60;2124.80;;;;;;4888281;29;20029;-80
2021/09/26 08:42:03;;;;;;;44.05;29.88;;;614.70;2048.00;;;;;;4871836;29;20094;-78
2021/09/26 08:44:29;;;;;;;37.60;28.75;;;614.80;1996.80;;;;;;4885137;29;20044;-78
2021/09/26 08:46:56;;;;;;;40.92;26.35;;;614.90;2048.00;;;;;;4889473;29;20053;-80
2021/09/26 08:49:22;;;;;;;36.47;25.77;;;614.90;2022.40;;;;;;4888822;29;20052;-79
2021/09/26 08:51:50;;;;;;;27.08;21.90;;;615.00;1971.20;;;;;;4888719;29;20100;-77
2021/09/26 08:54:16;;;;;;;25.73;17.42;;;615.00;1996.80;;;;;;4889699;29;20028;-81
2021/09/26 08:56:42;;;;;;;21.35;15.20;;;615.20;1996.80;;;;;;4889226;29;20080;-78
2021/09/26 08:59:10;;;;;;;17.48;13.43;;;615.30;1996.80;;;;;;4888237;29;20036;-82
2021/09/26 09:01:36;;;;;;;12.05;8.82;;;640.10;1996.80;;;;;;4889720;29;20051;-78
2021/09/26 09:04:02;;;;;;;11.93;7.13;;;640.10;1945.60;;;;;;4889164;29;20078;-81
2021/09/26 09:06:41;;;;;;;12.98;6.97;;;640.10;1920.00;;;;;;4890461;29;20044;-82
2021/09/26 09:09:16;;;;;;;7.32;5.65;;;640.40;1971.20;;;;;;4889749;29;20025;-80
2021/09/26 09:11:45;;;;;;;9.93;4.40;;;640.50;1894.40;;;;;;4887216;29;20032;-79
2021/09/26 09:14:11;;;;;;;7.18;5.28;;;640.70;1868.80;;;;;;4887698;29;20057;-77
2021/09/26 09:16:37;;;;;;;9.75;5.15;;;640.70;1868.80;;;;;;4890791;29;20131;-81
2021/09/26 09:19:03;;;;;;;13.95;5.75;;;640.80;1868.80;;;;;;4887649;29;20526;-79
2021/09/26 09:21:34;;;;;;;10.25;5.88;;;640.90;1817.60;;;;;;4884984;29;20029;-76
2021/09/26 09:24:13;;;;;;;10.73;5.15;;;665.60;1868.80;;;;;;4883217;29;20025;-82
2021/09/26 09:26:41;;;;;;;6.43;4.43;;;665.80;1817.60;;;;;;4885893;29;20120;-79
2021/09/26 09:29:08;;;;;;;10.00;4.68;;;666.00;1817.60;;;;;;4888064;29;20017;-81
2021/09/26 09:31:34;;;;;;;8.57;5.15;;;666.00;1766.40;;;;;;4887216;29;20450;-79
2021/09/26 09:34:07;;;;;;;6.10;4.00;;;666.10;1766.40;;;;;;4888819;29;20020;-80
2021/09/26 09:36:33;;;;;;;7.07;4.40;;;666.30;1715.20;;;;;;4886913;29;20029;-81
2021/09/26 09:39:06;;;;;;;7.40;4.60;;;691.20;1689.60;;;;;;4889085;29;20104;-82
2021/09/26 09:41:40;;;;;;;5.85;4.05;;;691.20;1664.00;;;;;;4888583;29;20028;-81
2021/09/26 09:44:10;;;;;;;5.35;4.05;;;691.40;1689.60;;;;;;4888670;29;20030;-76
2021/09/26 09:46:39;;;;;;;9.35;3.75;;;691.50;1664.00;;;;;;4884025;29;20021;-77
2021/09/26 09:49:17;;;;;;;6.68;3.60;;;691.70;1638.40;;;;;;4882368;29;20057;-78
2021/09/26 09:51:50;;;;;;;8.18;4.13;;;691.70;1510.40;;;;;;4886204;29;20116;-79
2021/09/26 09:54:34;;;;;;;11.63;4.13;;;691.80;1510.40;;;;;;4870032;29;20035;-83
2021/09/26 09:57:15;;;;;;;8.90;3.88;;;691.90;1561.60;;;;;;4887029;29;20064;-85
2021/09/26 09:59:45;;;;;;;11.50;3.88;;;692.10;1510.40;;;;;;4882058;29;20029;-83
2021/09/26 10:02:11;;;;;;;5.22;3.78;;;716.80;1587.20;;;;;;4877851;29;20021;-77
2021/09/26 10:04:40;;;;;;;5.40;3.53;;;717.10;1510.40;;;;;;4862894;29;20017;-80
2021/09/26 10:07:26;;;;;;;5.45;3.90;;;717.10;1484.80;;;;;;4880303;29;20542;-79
2021/09/26 10:09:56;;;;;;;6.07;4.30;;;717.10;1459.20;;;;;;4889608;29;20029;-80
2021/09/26 10:12:31;;;;;;;9.07;3.95;;;717.20;1433.60;;;;;;4888201;29;20044;-80
2021/09/26 10:15:01;;;;;;;10.60;4.03;;;717.50;1433.60;;;;;;4870685;29;20044;-83
2021/09/26 10:17:29;;;;;;;6.22;4.18;;;717.60;1433.60;;;;;;4871989;29;20484;-81
2021/09/26 10:19:55;;;;;;;6.60;3.67;;;717.70;1356.80;;;;;;4889047;29;20099;-82
2021/09/26 10:22:22;;;;;;;7.38;3.97;;;742.40;1433.60;;;;;;4888333;29;20020;-81
2021/09/26 10:24:50;;;;;;;7.00;3.42;;;742.40;1408.00;;;;;;4888862;29;20032;-78
2021/09/26 10:27:23;;;;;;;8.52;4.72;;;742.60;1356.80;;;;;;4872441;29;20028;-79
2021/09/26 10:29:57;;;;;;;6.43;5.05;;;742.70;1331.20;;;;;;4875603;29;20032;-76
2021/09/26 10:32:24;;;;;;;9.45;7.47;;;742.80;1331.20;;;;;;4878757;29;20109;-77
2021/09/26 10:34:50;;;;;;;11.10;7.72;;;743.00;1331.20;;;;;;4875437;29;20806;-79
2021/09/26 10:37:17;;;;;;;7.72;5.38;;;743.10;1305.60;;;;;;4877547;29;20099;-78
2021/09/26 10:39:43;;;;;;;7.65;6.05;;;743.10;1203.20;;;;;;4877986;29;20021;-78
2021/09/26 10:42:12;;;;;;;11.07;6.38;;;743.30;1203.20;;;;;;4875919;29;20025;-80
2021/09/26 10:45:00;;;;;;;11.13;8.55;;;768.10;1203.20;;;;;;4877727;29;20027;-79
2021/09/26 10:47:26;;;;;;;10.65;8.23;;;768.20;1203.20;;;;;;4877752;29;20033;-79
2021/09/26 10:50:05;;;;;;;10.77;7.68;;;768.40;1228.80;;;;;;4861381;29;20025;-76
2021/09/26 10:52:37;;;;;;;10.07;7.55;;;768.30;1254.40;;;;;;4882533;29;20538;-82
2021/09/26 10:55:15;;;;;;;13.43;7.55;;;768.30;1203.20;;;;;;4878353;29;20081;-81
2021/09/26 10:57:44;;;;;;;11.88;7.57;;;768.50;1228.80;;;;;;4878878;29;20021;-80
2021/09/26 11:00:28;;;;;;;14.15;7.90;;;768.40;1254.40;;;;;;4861679;29;20084;-79
2021/09/26 11:02:55;;;;;;;11.05;7.78;;;768.60;1203.20;;;;;;4878589;29;20060;-82
2021/09/26 11:05:30;;;;;;;11.45;7.38;;;768.60;1203.20;;;;;;4878304;29;20101;-82
2021/09/26 11:07:56;;;;;;;9.68;5.97;;;768.80;1203.20;;;;;;4880457;29;20097;-77
2021/09/26 11:10:42;;;;;;;7.57;5.85;;;768.70;1177.60;;;;;;4882306;29;20060;-85
2021/09/26 11:13:14;;;;;;;8.50;6.43;;;768.90;1152.00;;;;;;4869495;29;20057;-79
2021/09/26 11:15:58;;;;;;;10.55;5.18;;;768.80;1152.00;;;;;;4871574;29;20038;-81
2021/09/26 11:19:02;;;;;;;10.18;5.78;;;768.90;1152.00;;;;;;4866628;29;20032;-81
2021/09/26 11:21:37;;;;;;;9.23;6.03;;;793.90;1126.40;;;;;;4863365;29;20056;-81
2021/09/26 11:24:13;;;;;;;11.10;5.80;;;793.70;1126.40;;;;;;4865579;29;20124;-78
2021/09/26 11:27:00;;;;;;;11.95;6.05;;;793.60;1126.40;;;;;;4870331;29;20038;-78
2021/09/26 11:29:31;;;;;;;9.27;5.03;;;;;;;;;;4872426;29;20025;-83
2021/09/26 11:31:58;;;;;;;10.75;5.20;;;794.00;1152.00;;;;;;4868361;29;20045;-77
2021/09/26 11:34:42;;;;;;;9.57;5.13;;;794.30;1126.40;;;;;;4862022;29;20154;-77
2021/09/26 11:37:12;;;;;;;11.48;4.88;;;794.40;1100.80;;;;;;4866546;29;20038;-77
2021/09/26 11:39:39;;;;;;;15.02;5.53;;;794.00;1075.20;;;;;;4871765;29;20389;-81
2021/09/26 11:42:27;;;;;;;6.75;4.57;;;794.00;1100.80;;;;;;4872462;29;20030;-82
2021/09/26 11:44:55;;;;;;;8.07;4.93;;;794.20;1100.80;;;;;;4869049;29;20500;-78
2021/09/26 11:47:21;;;;;;;8.85;4.60;;;794.40;1075.20;;;;;;4871493;29;20021;-77
2021/09/26 11:49:47;;;;;;;7.97;4.55;;;819.20;1075.20;;;;;;4867491;29;20030;-78
2021/09/26 11:52:13;;;;;;;11.93;4.78;;;794.50;1100.80;;;;;;4869834;29;20939;-80
2021/09/26 11:54:39;;;;;;;5.43;3.65;;;794.40;1075.20;;;;;;4872343;29;20390;-80
2021/09/26 11:57:05;;;;;;;6.63;3.72;;;794.20;1049.60;;;;;;4870322;29;20089;-81
2021/09/26 11:59:39;;;;;;;5.47;3.13;;;794.50;1049.60;;;;;;4871656;29;20021;-76
2021/09/26 12:02:23;;;;;;;19.63;8.75;;;794.50;1049.60;;;;;;4867159;29;20025;-79
2021/09/26 12:04:48;;;;;;;6.95;4.80;;;819.30;1075.20;;;;;;4864636;29;20113;-79
2021/09/26 12:07:14;;;;;;;7.22;3.17;;;819.30;1075.20;;;;;;4871220;29;20050;-79
2021/09/26 12:09:40;;;;;;;6.25;4.03;;;794.50;1100.80;;;;;;4870706;29;20033;-78
2021/09/26 12:12:12;;;;;;;9.35;3.63;;;794.50;1100.80;;;;;;4871727;29;20100;-81
2021/09/26 12:14:41;;;;;;;8.55;3.78;;;794.50;1100.80;;;;;;4882625;29;20041;-78
2021/09/26 12:17:09;;;;;;;7.63;3.47;;;819.20;1075.20;;;;;;4885666;29;20096;-78